Whiting Field Naval Air Station north Airport Milton US
ICAO: KNSE
IATA: NSE
Category: Medium
Scheduled Services: No

Elevation: 199 ft
TransAlt. 18000 ft.

Airport Communications:
PENSACOLA APP/DEP:127.35
ATIS:29.032
CLNC DEL:25.777
GND:25.115
BASE OPS:23.37
PMSV METRO:31.695
TWR:121.4

KNSE Zoom In..

Runways:

(A) RW 05 length 6002 ft width 200 ft
---- / hdg 49

(B) RW 14 length 6002 ft width 200 ft
ILS 111.75 / hdg 139

(C) RW 23 length 6002 ft width 200 ft
---- / hdg 229

(D) RW 32 length 6002 ft width 200 ft
---- / hdg 319

Location; KNSE
Day. 24 / Time. 12.56 Zulu
* Altimeter: 30.10
* Temperature: 24° c. 75.2°f.
* Wind from: 000° Speed 00 kn.
Dewpoint: 21° c.
Visibility: 10 Statute Miles.
Clouds: Few 7000 ft.
Clouds: Few 12000 ft.
Clouds: Scattered 25000 ft.

KNSE 241256Z 00000KT 10SM FEW070 FEW120 SCT250 24/21 A3010 RMK AO2 SLP176 T02440206 $


Wind - Calm.

 
 
jpsmedia.com for Web Design SOUNDCLOUD worldairports.se 2018   terms of use